createdAt,value
2019-01-19T10:32:43.087Z,26.87
2019-01-19T10:33:39.954Z,26.75
2019-01-19T10:34:36.671Z,26.69
2019-01-19T10:35:37.733Z,26.62
2019-01-19T10:36:34.391Z,26.56
2019-01-19T10:37:31.120Z,26.50
2019-01-19T10:38:27.759Z,26.37
2019-01-19T10:39:24.370Z,26.31
2019-01-19T10:41:00.680Z,26.25
2019-01-19T10:41:56.830Z,26.19
2019-01-19T10:42:52.978Z,26.12
2019-01-19T10:43:49.363Z,26.06
2019-01-19T10:44:45.571Z,26.00
2019-01-19T10:45:41.642Z,25.94
2019-01-19T10:46:37.782Z,25.88
2019-01-19T10:47:33.957Z,25.81
2019-01-19T10:48:30.002Z,25.75
2019-01-19T10:49:26.052Z,25.69
2019-01-19T10:50:22.279Z,25.62
2019-01-19T10:51:18.377Z,25.56
2019-01-19T10:52:14.530Z,25.50
2019-01-19T10:53:10.573Z,25.44
2019-01-19T10:54:06.710Z,25.37
2019-01-19T10:55:02.845Z,25.37
2019-01-19T10:55:59.011Z,25.31
2019-01-19T10:56:55.055Z,25.25
2019-01-19T10:57:51.132Z,25.19
2019-01-19T10:58:47.273Z,25.12
2019-01-19T10:59:43.316Z,25.12
2019-01-19T11:00:39.484Z,25.06
2019-01-19T11:01:35.570Z,25.00
2019-01-19T11:02:31.710Z,24.94
2019-01-19T11:03:27.850Z,24.94
2019-01-19T11:04:24.383Z,24.87
2019-01-19T11:05:20.435Z,24.81
2019-01-19T11:06:16.575Z,24.75
2019-01-19T11:07:12.611Z,24.69
2019-01-19T11:08:08.715Z,24.69
2019-01-19T11:09:04.884Z,24.63
2019-01-19T11:10:01.050Z,24.56
2019-01-19T11:10:57.255Z,24.56
2019-01-19T11:11:53.413Z,24.50
2019-01-19T11:12:49.617Z,24.44
2019-01-19T11:13:46.103Z,24.44
2019-01-19T11:14:42.153Z,24.37
2019-01-19T11:15:38.209Z,24.31
2019-01-19T11:16:34.366Z,24.31
2019-01-19T11:17:30.458Z,24.25
2019-01-19T11:18:26.599Z,24.25
2019-01-19T11:19:22.750Z,24.19
2019-01-19T11:20:18.811Z,24.12
2019-01-19T11:21:14.962Z,24.12
2019-01-19T11:22:11.115Z,24.06
2019-01-19T11:23:07.172Z,24.00
2019-01-19T11:24:03.302Z,24.00
2019-01-19T11:24:59.340Z,23.94
2019-01-19T11:25:55.429Z,23.94
2019-01-19T11:26:51.555Z,23.87
2019-01-19T11:27:47.704Z,23.87
2019-01-19T11:28:45.009Z,23.81
2019-01-19T11:29:41.275Z,23.75
2019-01-19T11:30:37.442Z,23.75
2019-01-19T11:31:33.495Z,23.69
2019-01-19T11:32:29.670Z,23.69
2019-01-19T11:33:25.715Z,23.62
2019-01-19T11:34:21.754Z,23.62
2019-01-19T11:35:20.038Z,23.56
2019-01-19T11:36:16.098Z,23.56
2019-01-19T11:37:12.534Z,23.50
2019-01-19T11:38:12.166Z,23.50
2019-01-19T11:39:06.550Z,23.44
2019-01-19T11:40:02.607Z,23.44
2019-01-19T11:40:58.647Z,23.44
2019-01-19T11:41:54.802Z,23.38
2019-01-19T11:42:50.987Z,23.31
2019-01-19T11:43:47.030Z,23.31
2019-01-19T11:44:43.114Z,23.25
2019-01-19T11:45:39.240Z,23.25
2019-01-19T11:46:35.290Z,23.25
2019-01-19T11:47:31.344Z,23.19
2019-01-19T11:48:27.513Z,23.19
2019-01-19T11:49:23.840Z,23.12
2019-01-19T11:50:20.001Z,23.12
2019-01-19T11:51:16.127Z,23.12
2019-01-19T11:52:12.303Z,23.06
2019-01-19T11:53:08.464Z,23.06
2019-01-19T11:54:04.515Z,23.00
2019-01-19T11:55:00.690Z,23.00
2019-01-19T11:55:58.168Z,23.00
2019-01-19T11:56:54.443Z,22.94
2019-01-19T11:57:50.575Z,22.94
2019-01-19T11:58:46.743Z,22.87
2019-01-19T11:59:42.882Z,22.87
2019-01-19T12:00:39.031Z,22.87
2019-01-19T12:01:35.098Z,22.81
2019-01-19T12:02:36.973Z,22.81
2019-01-19T12:03:29.236Z,22.81
2019-01-19T12:04:25.386Z,22.75
2019-01-19T12:05:21.531Z,22.75
2019-01-19T12:06:17.673Z,22.75
2019-01-19T12:07:13.745Z,22.69
2019-01-19T12:08:09.899Z,22.69
2019-01-19T12:09:06.054Z,22.69
2019-01-19T12:10:02.183Z,22.62
2019-01-19T12:10:58.244Z,22.62
2019-01-19T12:11:54.402Z,22.62
2019-01-19T12:12:50.440Z,22.56
2019-01-19T12:13:46.531Z,22.56
2019-01-19T12:14:42.690Z,22.56
2019-01-19T12:15:38.746Z,22.50
2019-01-19T12:16:34.881Z,22.50
2019-01-19T12:17:31.020Z,22.50
2019-01-19T12:18:27.197Z,22.44
2019-01-19T12:19:23.295Z,22.44
2019-01-19T12:20:19.337Z,22.44
2019-01-19T12:21:15.377Z,22.37
2019-01-19T12:22:11.443Z,22.37
2019-01-19T12:23:08.632Z,22.37
2019-01-19T12:24:05.624Z,22.31
2019-01-19T12:25:01.883Z,22.31
2019-01-19T12:25:57.942Z,22.31
2019-01-19T12:26:54.091Z,22.31
2019-01-19T12:27:50.471Z,22.25
2019-01-19T12:28:46.636Z,22.25
2019-01-19T12:29:42.818Z,22.25
2019-01-19T12:30:38.977Z,22.25
2019-01-19T12:31:35.128Z,22.19
2019-01-19T12:32:31.291Z,22.19
2019-01-19T12:33:27.451Z,22.19
2019-01-19T12:34:23.638Z,22.13
2019-01-19T12:35:20.237Z,22.13
2019-01-19T12:36:16.380Z,22.13
2019-01-19T12:37:56.148Z,22.06
2019-01-19T12:38:52.307Z,22.06
2019-01-19T12:40:39.966Z,22.06
2019-01-19T12:41:36.126Z,22.00
2019-01-19T12:42:32.273Z,22.00
2019-01-19T12:43:28.339Z,22.00
2019-01-19T12:44:24.481Z,21.94
2019-01-19T12:45:20.687Z,21.94
2019-01-19T12:46:16.859Z,21.94
2019-01-19T12:47:12.923Z,21.94
2019-01-19T12:48:09.049Z,21.94
2019-01-19T12:49:05.172Z,21.87
2019-01-19T12:50:01.239Z,21.87
2019-01-19T12:50:57.408Z,21.87
2019-01-19T12:51:53.550Z,21.87
2019-01-19T12:52:49.628Z,21.81
2019-01-19T12:53:45.777Z,21.81
2019-01-19T12:54:41.953Z,21.81
2019-01-19T12:55:38.339Z,21.81
2019-01-19T12:56:34.478Z,21.75
2019-01-19T12:57:30.643Z,21.75
2019-01-19T12:58:26.787Z,21.69
2019-01-19T12:59:22.927Z,21.69
2019-01-19T13:00:19.001Z,21.62
2019-01-19T13:01:15.128Z,21.62
2019-01-19T13:02:11.285Z,21.56
2019-01-19T13:03:07.408Z,21.56
2019-01-19T13:04:03.473Z,21.50
2019-01-19T13:04:59.624Z,21.50
2019-01-19T13:05:55.793Z,21.50
2019-01-19T13:06:52.299Z,21.44
2019-01-19T13:07:48.363Z,21.37
2019-01-19T13:08:44.537Z,21.37
2019-01-19T13:09:41.128Z,21.37
2019-01-19T13:10:37.278Z,21.31
2019-01-19T13:11:33.403Z,21.31
2019-01-19T13:12:29.491Z,21.31
2019-01-19T13:13:25.542Z,21.31
2019-01-19T13:14:21.706Z,21.31
2019-01-19T13:15:17.851Z,21.37
2019-01-19T13:16:14.009Z,21.44
2019-01-19T13:17:10.074Z,21.44
2019-01-19T13:18:06.234Z,21.56
2019-01-19T13:19:02.296Z,21.62
2019-01-19T13:19:58.417Z,21.69
2019-01-19T13:20:54.507Z,21.81
2019-01-19T13:21:50.564Z,21.87
2019-01-19T13:22:47.060Z,22.00
2019-01-19T13:23:45.339Z,22.06
2019-01-19T13:24:41.082Z,22.19
2019-01-19T13:25:37.127Z,22.25
2019-01-19T13:26:33.308Z,22.31
2019-01-19T13:27:29.488Z,22.37
2019-01-19T13:28:25.650Z,22.44
2019-01-19T13:29:53.411Z,22.50
2019-01-19T13:30:50.147Z,22.50
2019-01-19T13:31:46.892Z,22.50
2019-01-19T13:32:43.673Z,22.56
2019-01-19T13:33:40.445Z,22.56
2019-01-19T13:34:37.154Z,22.62
2019-01-19T13:35:33.867Z,22.62
2019-01-19T13:36:30.616Z,22.69
2019-01-19T13:37:27.343Z,22.69
2019-01-19T13:38:24.328Z,22.75
2019-01-19T13:39:21.092Z,22.87
2019-01-19T13:40:17.819Z,23.00
2019-01-19T13:41:14.458Z,23.19
2019-01-19T13:42:11.161Z,23.38
2019-01-19T13:43:09.349Z,23.62
2019-01-19T13:44:06.060Z,23.94
2019-01-19T13:45:02.788Z,24.31
2019-01-19T13:45:59.436Z,24.69
2019-01-19T13:46:56.328Z,25.12
2019-01-19T13:47:54.220Z,25.62
2019-01-19T13:48:51.001Z,26.19
2019-01-19T13:49:47.728Z,29.06
2019-01-19T13:50:44.581Z,30.12
2019-01-19T13:51:41.355Z,29.25
2019-01-19T13:52:38.120Z,30.37
2019-01-19T13:53:34.830Z,32.31
2019-01-19T13:54:31.580Z,33.56
2019-01-19T13:55:28.376Z,34.06
2019-01-19T13:56:25.131Z,34.25
2019-01-19T13:57:21.877Z,34.25
2019-01-19T13:58:18.649Z,34.69
2019-01-19T13:59:15.424Z,35.31
2019-01-19T14:00:18.421Z,35.75
2019-01-19T14:01:10.717Z,36.00
2019-01-19T14:02:07.377Z,36.00
2019-01-19T14:03:04.099Z,35.75
2019-01-19T14:04:00.952Z,35.00
2019-01-19T14:04:57.702Z,33.81
2019-01-19T14:05:56.240Z,32.06
2019-01-19T14:06:53.023Z,30.44
2019-01-19T14:07:49.739Z,30.31
2019-01-19T14:08:49.390Z,31.31
2019-01-19T14:09:45.207Z,32.75
2019-01-19T14:10:41.870Z,34.06
2019-01-19T14:11:38.767Z,35.19
2019-01-19T14:12:35.453Z,36.00
2019-01-19T14:13:32.192Z,36.63
2019-01-19T14:14:29.047Z,37.06
2019-01-19T14:15:25.708Z,37.44
2019-01-19T14:16:22.620Z,37.81
2019-01-19T14:17:19.360Z,38.13
2019-01-19T14:18:16.076Z,38.31
2019-01-19T14:19:12.828Z,38.56
2019-01-19T14:20:09.502Z,38.75
2019-01-19T14:21:06.303Z,38.94
2019-01-19T14:22:03.058Z,39.06
2019-01-19T14:22:59.753Z,39.25
2019-01-19T14:23:56.441Z,39.44
2019-01-19T14:24:53.259Z,39.31
2019-01-19T14:25:49.997Z,39.06
2019-01-19T14:26:46.877Z,38.81
2019-01-19T14:27:43.610Z,38.63
2019-01-19T14:28:40.313Z,38.44
2019-01-19T14:29:36.960Z,38.31
2019-01-19T14:30:33.704Z,38.19
2019-01-19T14:31:30.614Z,38.06
2019-01-19T14:32:27.330Z,38.00
2019-01-19T14:33:23.966Z,37.94
2019-01-19T14:34:20.606Z,37.75
2019-01-19T14:35:17.399Z,37.44
2019-01-19T14:36:14.756Z,36.88
2019-01-19T14:37:11.653Z,35.94
2019-01-19T14:38:08.430Z,34.75
2019-01-19T14:39:05.151Z,33.38
2019-01-19T14:40:01.784Z,32.19
2019-01-19T14:40:58.436Z,31.81
2019-01-19T14:41:55.367Z,32.63
2019-01-19T14:42:51.993Z,34.06
2019-01-19T14:43:48.678Z,35.56
2019-01-19T14:44:45.397Z,37.00
2019-01-19T14:45:42.135Z,38.19
2019-01-19T14:46:38.793Z,39.06
2019-01-19T14:47:35.467Z,39.44
2019-01-19T14:48:32.218Z,39.38
2019-01-19T14:49:28.943Z,39.19
2019-01-19T14:50:25.652Z,39.00
2019-01-19T14:51:22.273Z,38.75
2019-01-19T14:52:19.057Z,38.56
2019-01-19T14:53:15.775Z,38.44
2019-01-19T14:54:12.467Z,38.31
2019-01-19T14:55:09.308Z,38.13
2019-01-19T14:56:06.013Z,37.94
2019-01-19T14:57:02.853Z,37.50
2019-01-19T14:57:59.584Z,36.88
2019-01-19T14:58:56.317Z,36.00
2019-01-19T14:59:53.045Z,34.81
2019-01-19T15:00:49.825Z,33.56
2019-01-19T15:01:46.719Z,32.50
2019-01-19T15:02:43.456Z,32.13
2019-01-19T15:03:40.239Z,32.88
2019-01-19T15:04:36.932Z,34.38
2019-01-19T15:05:33.593Z,36.00
2019-01-19T15:06:30.793Z,37.56
2019-01-19T15:07:27.536Z,38.75
2019-01-19T15:08:24.197Z,39.31
2019-01-19T15:09:20.837Z,39.38
2019-01-19T15:10:17.546Z,39.25
2019-01-19T15:11:14.177Z,39.06
2019-01-19T15:12:11.040Z,38.88
2019-01-19T15:13:07.887Z,38.69
2019-01-19T15:14:05.118Z,38.56
2019-01-19T15:15:02.395Z,38.38
2019-01-19T15:15:59.087Z,38.19
2019-01-19T15:16:55.864Z,37.88
2019-01-19T15:17:52.719Z,37.44
2019-01-19T15:18:49.536Z,36.69
2019-01-19T15:19:46.257Z,35.69
2019-01-19T15:20:42.901Z,34.50
2019-01-19T15:21:39.696Z,33.25
2019-01-19T15:22:36.506Z,32.38
2019-01-19T15:23:33.231Z,32.56
2019-01-19T15:24:29.914Z,33.75
2019-01-19T15:25:26.643Z,35.38
2019-01-19T15:26:23.265Z,37.00
2019-01-19T15:27:20.079Z,38.44
2019-01-19T15:28:16.824Z,39.25
2019-01-19T15:29:13.463Z,39.44
2019-01-19T15:30:10.096Z,39.38
2019-01-19T15:31:06.736Z,39.25
2019-01-19T15:32:04.153Z,39.06
2019-01-19T15:33:00.974Z,38.94
2019-01-19T15:33:57.845Z,38.81
2019-01-19T15:34:54.628Z,38.63
2019-01-19T15:35:51.354Z,38.50
2019-01-19T15:36:50.700Z,38.19
2019-01-19T15:37:47.443Z,37.69
2019-01-19T15:38:44.126Z,37.00
2019-01-19T15:39:40.930Z,36.06
2019-01-19T15:40:37.659Z,34.94
2019-01-19T15:41:34.376Z,33.75
2019-01-19T15:42:31.002Z,32.81
2019-01-19T15:43:27.707Z,32.69
2019-01-19T15:44:24.457Z,33.69
2019-01-19T15:45:21.245Z,35.25
2019-01-19T15:46:17.911Z,36.88
2019-01-19T15:47:14.951Z,38.38
2019-01-19T15:48:11.645Z,39.38
2019-01-19T15:49:08.407Z,39.69
2019-01-19T15:50:05.290Z,39.69
2019-01-19T15:51:02.042Z,39.56
2019-01-19T15:51:58.772Z,39.44
2019-01-19T15:52:55.511Z,39.25
2019-01-19T15:53:52.294Z,39.13
2019-01-19T15:54:49.026Z,39.00
2019-01-19T15:55:45.774Z,38.81
2019-01-19T15:56:42.503Z,38.56
2019-01-19T15:57:39.257Z,38.13
2019-01-19T15:58:36.004Z,37.50
2019-01-19T15:59:33.439Z,36.56
2019-01-19T16:00:30.098Z,35.56
2019-01-19T16:01:26.796Z,34.56
2019-01-19T16:02:23.692Z,33.69
2019-01-19T16:03:20.466Z,33.00
2019-01-19T16:04:17.254Z,32.31
2019-01-19T16:05:13.998Z,31.50
2019-01-19T16:06:10.683Z,30.81
2019-01-19T16:07:07.452Z,30.19
2019-01-19T16:08:04.209Z,29.69
2019-01-19T16:09:00.929Z,29.31
2019-01-19T16:09:57.696Z,29.06
2019-01-19T16:10:54.403Z,28.81
2019-01-19T16:11:51.053Z,28.62
2019-01-19T16:12:47.750Z,28.44
2019-01-19T16:13:44.455Z,28.31
2019-01-19T16:14:41.107Z,28.19
2019-01-19T16:15:38.141Z,28.00
2019-01-19T16:16:34.925Z,27.87
2019-01-19T16:17:31.639Z,27.75
2019-01-19T16:18:28.382Z,27.62
2019-01-19T16:19:25.032Z,27.56
2019-01-19T16:20:21.787Z,27.44
2019-01-19T16:21:18.471Z,27.37
2019-01-19T16:22:15.102Z,27.25
2019-01-19T16:23:11.988Z,27.19
2019-01-19T16:24:08.730Z,27.13
2019-01-19T16:25:05.405Z,27.00
2019-01-19T16:26:02.226Z,26.94
2019-01-19T16:26:58.982Z,26.87
2019-01-19T16:27:57.802Z,26.75
2019-01-19T16:28:54.675Z,26.69
2019-01-19T16:29:51.329Z,26.62
2019-01-19T16:30:48.080Z,26.56
2019-01-19T16:31:44.709Z,26.50
2019-01-19T16:32:41.515Z,26.37
2019-01-19T16:33:38.236Z,26.31
2019-01-19T16:34:35.211Z,26.25
2019-01-19T16:35:31.878Z,26.19
2019-01-19T16:36:28.627Z,26.12
2019-01-19T16:37:25.321Z,26.06
2019-01-19T16:38:21.979Z,26.00
2019-01-19T16:39:25.400Z,25.94
2019-01-19T16:40:17.249Z,25.88
2019-01-19T16:41:13.968Z,25.81
2019-01-19T16:42:10.668Z,25.75
2019-01-19T16:43:07.371Z,25.69
2019-01-19T16:44:04.343Z,25.62
2019-01-19T16:45:01.000Z,25.56
2019-01-19T16:45:57.842Z,25.50
2019-01-19T16:46:54.550Z,25.50
2019-01-19T16:47:53.719Z,25.44
2019-01-19T16:48:50.560Z,25.37
2019-01-19T16:49:47.813Z,25.31
2019-01-19T16:50:47.227Z,25.25
2019-01-19T16:51:44.261Z,25.25
2019-01-19T16:52:40.935Z,25.19
2019-01-19T16:53:37.742Z,25.12
2019-01-19T16:54:34.536Z,25.06
2019-01-19T16:55:31.197Z,25.00
2019-01-19T16:56:27.906Z,24.94
2019-01-19T16:57:24.650Z,24.87
2019-01-19T16:58:21.746Z,24.87
2019-01-19T16:59:18.507Z,24.81
2019-01-19T17:00:15.127Z,24.75
2019-01-19T17:01:11.875Z,24.75
2019-01-19T17:02:08.642Z,24.69
2019-01-19T17:03:07.550Z,24.63
2019-01-19T17:04:04.420Z,24.56
2019-01-19T17:05:01.135Z,24.56
2019-01-19T17:05:57.958Z,24.50
2019-01-19T17:06:54.647Z,24.44
2019-01-19T17:07:51.346Z,24.44
2019-01-19T17:08:48.317Z,24.37
2019-01-19T17:09:45.059Z,24.31
2019-01-19T17:10:41.784Z,24.31
2019-01-19T17:11:38.529Z,24.25
2019-01-19T17:12:35.285Z,24.19
2019-01-19T17:13:32.040Z,24.19
2019-01-19T17:14:28.697Z,24.12
2019-01-19T17:15:25.515Z,24.12
2019-01-19T17:16:22.261Z,24.06
2019-01-19T17:17:18.978Z,24.06
2019-01-19T17:18:15.726Z,24.00
2019-01-19T17:19:12.408Z,24.00
2019-01-19T17:20:09.209Z,23.94
2019-01-19T17:21:08.767Z,23.94
2019-01-19T17:22:05.400Z,23.87
2019-01-19T17:23:02.170Z,23.81
2019-01-19T17:23:58.851Z,23.81
2019-01-19T17:24:55.929Z,24.12
2019-01-19T17:25:52.600Z,25.44
2019-01-19T17:26:49.243Z,27.19
2019-01-19T17:27:48.573Z,31.31
2019-01-19T17:28:45.338Z,35.25
2019-01-19T17:29:42.068Z,36.75
2019-01-19T17:30:38.831Z,36.13
2019-01-19T17:31:35.562Z,34.50
2019-01-19T17:32:32.882Z,32.38
2019-01-19T17:33:29.679Z,30.37
2019-01-19T17:34:26.352Z,28.75
2019-01-19T17:35:23.068Z,31.81
2019-01-19T17:36:19.947Z,39.13
2019-01-19T17:37:16.692Z,41.19
2019-01-19T17:38:13.405Z,39.31
2019-01-19T17:39:15.253Z,37.44
2019-01-19T17:40:12.106Z,36.06
2019-01-19T17:41:11.563Z,34.75
2019-01-19T17:42:08.197Z,32.75
2019-01-19T17:43:04.844Z,30.62
2019-01-19T17:44:01.586Z,28.94
2019-01-19T17:44:58.366Z,27.75
2019-01-19T17:45:55.016Z,26.94
2019-01-19T17:46:51.806Z,26.37
2019-01-19T17:47:48.528Z,26.00
2019-01-19T17:48:45.217Z,25.75
2019-01-19T17:49:42.003Z,25.56
2019-01-19T17:50:38.745Z,25.44
2019-01-19T17:51:35.388Z,25.31
2019-01-19T17:52:32.056Z,25.25
2019-01-19T17:53:28.856Z,25.19
2019-01-19T17:54:25.643Z,25.12
2019-01-19T17:55:22.450Z,25.06
2019-01-19T17:56:19.174Z,25.00
2019-01-19T17:57:16.054Z,24.94
2019-01-19T17:58:12.807Z,24.87
2019-01-19T17:59:09.591Z,24.81
2019-01-19T18:00:06.390Z,24.81
2019-01-19T18:01:03.152Z,24.75
2019-01-19T18:01:59.911Z,24.69
2019-01-19T18:02:56.683Z,24.63
2019-01-19T18:03:53.415Z,24.56
2019-01-19T18:04:53.073Z,24.56
2019-01-19T18:05:49.756Z,24.50
2019-01-19T18:06:49.504Z,24.44
2019-01-19T18:07:46.241Z,24.44
2019-01-19T18:08:42.934Z,25.06
2019-01-19T18:09:39.707Z,26.25
2019-01-19T18:10:36.359Z,29.37
2019-01-19T18:11:33.020Z,33.38
2019-01-19T18:12:29.793Z,35.56
2019-01-19T18:13:26.551Z,35.50
2019-01-19T18:14:23.203Z,34.00
2019-01-19T18:15:19.933Z,31.94
2019-01-19T18:16:16.691Z,30.00
2019-01-19T18:17:13.429Z,28.50
2019-01-19T18:18:11.468Z,27.44
2019-01-19T18:19:08.183Z,26.69
2019-01-19T18:20:04.995Z,26.12
2019-01-19T18:21:01.766Z,25.75
2019-01-19T18:21:58.523Z,25.56
2019-01-19T18:22:55.175Z,25.44
2019-01-19T18:23:51.926Z,25.31
2019-01-19T18:24:48.799Z,25.19
2019-01-19T18:25:45.490Z,25.12
2019-01-19T18:26:42.398Z,25.06
2019-01-19T18:27:39.132Z,25.00
2019-01-19T18:28:38.791Z,24.94
2019-01-19T18:29:35.532Z,24.87
2019-01-19T18:30:36.931Z,24.81
2019-01-19T18:31:33.635Z,24.75
2019-01-19T18:32:30.514Z,24.69
2019-01-19T18:33:27.226Z,24.63
2019-01-19T18:34:23.883Z,24.56
2019-01-19T18:35:20.879Z,24.50
2019-01-19T18:36:17.632Z,24.50
2019-01-19T18:37:16.683Z,24.44
2019-01-19T18:38:16.650Z,24.37
2019-01-19T18:39:13.371Z,24.31
2019-01-19T18:40:10.157Z,24.25
2019-01-19T18:41:07.011Z,24.25
2019-01-19T18:42:06.893Z,24.19
2019-01-19T18:43:03.711Z,24.12
2019-01-19T18:44:04.830Z,24.12
2019-01-19T18:45:01.670Z,24.06
2019-01-19T18:45:58.500Z,24.00
2019-01-19T18:46:55.296Z,23.94
2019-01-19T18:47:53.030Z,23.94
2019-01-19T18:48:49.728Z,23.87
2019-01-19T18:49:48.921Z,23.87
2019-01-19T18:50:45.609Z,23.81
2019-01-19T18:51:42.382Z,23.75
2019-01-19T18:52:41.587Z,23.75
2019-01-19T18:53:39.656Z,23.69
2019-01-19T18:54:43.419Z,23.62
2019-01-19T18:55:40.042Z,23.62
2019-01-19T18:56:36.938Z,23.56
2019-01-19T18:57:33.689Z,23.56
2019-01-19T18:58:30.467Z,23.50
2019-01-19T18:59:29.759Z,23.44
2019-01-19T19:00:26.534Z,23.44
2019-01-19T19:01:23.295Z,23.38
2019-01-19T19:02:20.771Z,23.38
2019-01-19T19:03:17.512Z,23.31
2019-01-19T19:04:14.431Z,23.31
2019-01-19T19:05:11.115Z,23.25
2019-01-19T19:06:07.879Z,23.25
2019-01-19T19:07:04.538Z,23.19
2019-01-19T19:08:01.194Z,23.19
2019-01-19T19:08:57.969Z,23.12
2019-01-19T19:09:54.683Z,23.12
2019-01-19T19:10:51.394Z,23.06
2019-01-19T19:11:48.074Z,23.06
2019-01-19T19:12:44.913Z,23.00
2019-01-19T19:13:43.886Z,23.00
2019-01-19T19:14:40.523Z,22.94
2019-01-19T19:15:37.215Z,22.94
2019-01-19T19:16:35.116Z,22.87
2019-01-19T19:17:31.876Z,22.87
2019-01-19T19:18:28.699Z,22.81
2019-01-19T19:19:25.453Z,22.81
2019-01-19T19:20:22.207Z,22.81
2019-01-19T19:21:18.973Z,22.75
2019-01-19T19:22:15.725Z,22.75
2019-01-19T19:23:12.548Z,22.69
2019-01-19T19:24:09.352Z,22.69
2019-01-19T19:25:06.152Z,22.69
2019-01-19T19:26:02.807Z,22.62
2019-01-19T19:26:59.550Z,22.62
2019-01-19T19:27:56.244Z,22.56
2019-01-19T19:28:53.007Z,22.56
2019-01-19T19:29:49.782Z,22.56
2019-01-19T19:30:46.543Z,22.50
2019-01-19T19:31:43.330Z,22.50
2019-01-19T19:32:40.058Z,22.50
2019-01-19T19:33:36.761Z,22.44
2019-01-19T19:34:33.425Z,22.44
2019-01-19T19:35:31.109Z,22.37
2019-01-19T19:36:27.899Z,22.37
2019-01-19T19:37:24.539Z,22.37
2019-01-19T19:38:21.227Z,22.31
2019-01-19T19:39:17.979Z,22.31
2019-01-19T19:40:14.755Z,22.31
2019-01-19T19:41:11.397Z,22.25
2019-01-19T19:42:08.159Z,22.25
2019-01-19T19:43:04.936Z,22.25
2019-01-19T19:44:01.759Z,22.19
2019-01-19T19:44:58.488Z,22.19
2019-01-19T19:45:55.166Z,22.13
2019-01-19T19:46:51.950Z,22.13
2019-01-19T19:47:48.688Z,22.13
2019-01-19T19:48:45.422Z,22.06
2019-01-19T19:49:42.072Z,22.06
2019-01-19T19:50:38.923Z,22.06
2019-01-19T19:51:35.658Z,22.06
2019-01-19T19:52:32.393Z,22.00
2019-01-19T19:53:29.113Z,22.00
2019-01-19T19:54:25.771Z,22.00
2019-01-19T19:55:22.703Z,21.94
2019-01-19T19:56:19.442Z,21.94
2019-01-19T19:57:16.196Z,21.94
2019-01-19T19:58:12.837Z,21.94
2019-01-19T19:59:09.547Z,21.87
2019-01-19T20:00:06.376Z,21.87
2019-01-19T20:01:03.175Z,21.81
2019-01-19T20:01:59.806Z,21.81
2019-01-19T20:02:56.576Z,21.81
2019-01-19T20:03:53.369Z,21.81
2019-01-19T20:04:50.143Z,21.75
2019-01-19T20:05:46.911Z,21.75
2019-01-19T20:06:43.688Z,21.75
2019-01-19T20:07:40.478Z,21.75
2019-01-19T20:08:37.208Z,21.69
2019-01-19T20:09:33.850Z,21.69
2019-01-19T20:10:30.656Z,21.69
2019-01-19T20:11:27.410Z,21.69
2019-01-19T20:12:24.266Z,21.62
2019-01-19T20:13:20.890Z,21.62
2019-01-19T20:14:17.648Z,21.62
2019-01-19T20:15:14.302Z,21.56
2019-01-19T20:16:11.075Z,21.56
2019-01-19T20:17:07.817Z,21.56
2019-01-19T20:18:04.594Z,21.56
2019-01-19T20:19:03.873Z,21.56
2019-01-19T20:20:00.635Z,21.50
2019-01-19T20:20:57.470Z,21.50
2019-01-19T20:21:54.219Z,21.50
2019-01-19T20:22:50.966Z,21.50
2019-01-19T20:23:50.175Z,21.44
2019-01-19T20:24:47.140Z,21.44
2019-01-19T20:25:43.948Z,21.44
2019-01-19T20:26:40.688Z,21.44
2019-01-19T20:27:38.719Z,21.37
2019-01-19T20:28:35.388Z,21.37
2019-01-19T20:29:32.131Z,21.37
2019-01-19T20:30:28.887Z,21.37
2019-01-19T20:31:25.654Z,21.31
2019-01-19T20:32:22.390Z,21.31
2019-01-19T20:33:19.126Z,21.31
2019-01-19T20:34:17.652Z,21.31
2019-01-19T20:35:14.381Z,21.25
2019-01-19T20:36:11.269Z,21.25
2019-01-19T20:37:08.275Z,21.25
2019-01-19T20:38:05.024Z,21.25
2019-01-19T20:39:02.754Z,21.25
2019-01-19T20:40:02.019Z,21.19
2019-01-19T20:40:58.781Z,21.25
2019-01-19T20:41:58.013Z,21.19
2019-01-19T20:42:54.741Z,21.19
2019-01-19T20:43:51.592Z,21.19
2019-01-19T20:44:48.244Z,21.19
2019-01-19T20:45:44.985Z,21.12
2019-01-19T20:46:41.751Z,21.12
2019-01-19T20:47:38.502Z,21.12
2019-01-19T20:48:35.983Z,21.12
2019-01-19T20:49:32.715Z,21.12
2019-01-19T20:50:31.635Z,21.12
2019-01-19T20:51:28.308Z,21.06
2019-01-19T20:52:25.106Z,21.06
2019-01-19T20:53:23.221Z,21.06
2019-01-19T20:54:19.937Z,21.06
2019-01-19T20:55:16.553Z,21.06
2019-01-19T20:56:13.233Z,21.00
2019-01-19T20:57:09.987Z,21.00
2019-01-19T20:58:06.692Z,21.00
2019-01-19T20:59:03.598Z,21.00
2019-01-19T21:00:03.338Z,21.00
2019-01-19T21:01:04.732Z,21.00
2019-01-19T21:02:01.667Z,20.94
2019-01-19T21:02:58.352Z,20.94
2019-01-19T21:03:55.104Z,20.94
2019-01-19T21:04:51.790Z,20.94
2019-01-19T21:05:48.549Z,20.94
2019-01-19T21:06:45.319Z,20.88
2019-01-19T21:07:42.079Z,20.88
2019-01-19T21:08:38.828Z,20.88
2019-01-19T21:09:40.801Z,20.88
2019-01-19T21:10:37.506Z,20.88
2019-01-19T21:11:34.174Z,20.88
2019-01-19T21:12:30.959Z,20.88
2019-01-19T21:13:27.743Z,20.88
2019-01-19T21:14:24.530Z,20.81
2019-01-19T21:15:21.194Z,20.81
2019-01-19T21:16:18.020Z,20.81
2019-01-19T21:17:14.690Z,20.81
2019-01-19T21:18:11.415Z,20.81
2019-01-19T21:19:10.712Z,20.81
2019-01-19T21:20:07.615Z,20.75
2019-01-19T21:21:04.390Z,20.75
2019-01-19T21:22:01.123Z,20.75
2019-01-19T21:22:57.953Z,20.75
2019-01-19T21:23:54.739Z,20.75
2019-01-19T21:24:51.788Z,20.75
2019-01-19T21:25:48.572Z,20.69
2019-01-19T21:26:45.432Z,20.69
2019-01-19T21:27:42.209Z,20.69
2019-01-19T21:28:38.923Z,20.69
2019-01-19T21:29:35.677Z,20.69
2019-01-19T21:30:32.443Z,20.69
2019-01-19T21:31:29.142Z,20.69
2019-01-19T21:32:25.942Z,20.69
2019-01-19T21:33:22.711Z,20.62
2019-01-19T21:34:19.489Z,20.62
2019-01-19T21:35:16.544Z,20.62
2019-01-19T21:36:14.679Z,20.62
2019-01-19T21:37:11.449Z,20.62
2019-01-19T21:38:08.218Z,20.62
2019-01-19T21:39:05.085Z,20.62
2019-01-19T21:40:01.884Z,20.62
2019-01-19T21:40:58.586Z,20.56
2019-01-19T21:41:55.406Z,20.56
2019-01-19T21:42:52.152Z,20.56
2019-01-19T21:43:48.909Z,20.56
2019-01-19T21:44:45.678Z,20.56
2019-01-19T21:45:42.406Z,20.56
2019-01-19T21:46:39.163Z,20.56
2019-01-19T21:47:35.877Z,20.56
2019-01-19T21:48:32.630Z,20.50
2019-01-19T21:49:29.390Z,20.50
2019-01-19T21:50:28.301Z,20.50
2019-01-19T21:51:25.055Z,20.50
2019-01-19T21:52:21.916Z,20.50
2019-01-19T21:53:18.660Z,20.50
2019-01-19T21:54:15.480Z,20.50
2019-01-19T21:55:12.298Z,20.50
2019-01-19T21:56:09.112Z,20.50
2019-01-19T21:57:08.110Z,20.44
2019-01-19T21:58:04.839Z,20.44
2019-01-19T21:59:01.568Z,20.44
2019-01-19T21:59:58.344Z,20.44
2019-01-19T22:00:55.142Z,20.44
2019-01-19T22:01:52.114Z,20.44
2019-01-19T22:02:48.909Z,20.44
2019-01-19T22:03:45.677Z,20.44
2019-01-19T22:04:42.432Z,20.44
2019-01-19T22:05:39.212Z,20.37
2019-01-19T22:06:36.178Z,20.37
2019-01-19T22:07:32.932Z,20.37
2019-01-19T22:08:29.616Z,20.37
2019-01-19T22:09:26.680Z,20.37
2019-01-19T22:10:23.738Z,20.37
2019-01-19T22:11:20.634Z,20.37
2019-01-19T22:12:17.405Z,20.37
2019-01-19T22:13:14.130Z,20.37
2019-01-19T22:14:10.893Z,20.37
2019-01-19T22:15:07.604Z,20.31
2019-01-19T22:16:04.715Z,20.31
2019-01-19T22:17:01.514Z,20.31
2019-01-19T22:17:58.279Z,20.31
2019-01-19T22:18:55.016Z,20.31
2019-01-19T22:19:54.241Z,20.31
2019-01-19T22:20:50.983Z,20.31
2019-01-19T22:21:47.805Z,20.31
2019-01-19T22:22:44.524Z,20.31
2019-01-19T22:23:43.320Z,20.31
2019-01-19T22:24:41.035Z,20.25
2019-01-19T22:25:40.120Z,20.25
2019-01-19T22:26:37.038Z,20.25
2019-01-19T22:27:34.636Z,20.25
2019-01-19T22:28:31.458Z,20.25
2019-01-19T22:29:28.144Z,20.25
2019-01-19T22:30:24.887Z,20.25
2019-01-19T22:31:21.706Z,20.25
2019-01-19T22:32:18.494Z,20.25
2019-01-19T22:33:15.835Z,20.25
2019-01-19T22:34:12.588Z,20.19
2019-01-19T22:35:09.334Z,20.19
2019-01-19T22:36:07.459Z,20.19
2019-01-19T22:37:04.499Z,20.19
2019-01-19T22:38:01.277Z,20.19
2019-01-19T22:38:58.197Z,20.19
2019-01-19T22:39:54.981Z,20.19
2019-01-19T22:40:53.664Z,20.19
2019-01-19T22:41:50.458Z,20.19
2019-01-19T22:42:47.330Z,20.19
2019-01-19T22:43:47.172Z,20.12
2019-01-19T22:44:43.954Z,20.12
2019-01-19T22:45:40.601Z,20.12
2019-01-19T22:46:38.105Z,20.12